Star Markella — V7KL3 — position and weather

sailwx.info

Track history (hours):
 
Tides and Currents Weather Stations Pressure Air Temp Water Temp Dewpoint Dewpoint Depression Visibility Wind Speed Wind Dir Waves Ship Positions

Star Markella

Last reported at 2016-Aug-13 23:32 UTC. Time now 2016-Aug-26 23:25 UTC.
Position N 01°15' E 104°07'.
Warning: this ship's position is 12 days out of date.

Length 229 m; draft 13.2 m.

Type: Cargo ship. MMSI: 538002640.

Date/timePositionNaut miles runAvg speedWind from/ knotsBaromVisibWave heightAir tempDewpointWater temp
2016-Aug-13 23:32N 01°15' E 104°07'9 9.3
2016-Aug-13 22:33N 01°15' E 103°57'3 2.3
2016-Aug-13 21:27N 01°17' E 103°56'0 0.1
2016-Aug-13 20:33N 01°17' E 103°56'0 0.0
2016-Aug-13 19:15N 01°17' E 103°56'0 0.0
2016-Aug-13 18:27N 01°17' E 103°56'0 0.0
2016-Aug-13 17:33N 01°17' E 103°56'0 0.0
2016-Aug-13 16:33N 01°17' E 103°56'0 0.0
2016-Aug-13 15:33N 01°17' E 103°56'0 0.0
2016-Aug-13 14:27N 01°17' E 103°56'0 0.1
2016-Aug-13 13:33N 01°17' E 103°56'0 0.1
2016-Aug-13 12:33N 01°17' E 103°56'0 0.1
2016-Aug-13 11:33N 01°17' E 103°56'0 0.1
2016-Aug-13 10:34N 01°17' E 103°56'0 0.2
2016-Aug-13 09:33N 01°17' E 103°56'0 0.1
2016-Aug-13 08:33N 01°17' E 103°56'2 2.5
2016-Aug-13 07:34N 01°15' E 103°57'5 5.5
2016-Aug-13 06:34N 01°12' E 103°52'7 7.0
2016-Aug-13 05:33N 01°08' E 103°46'8310.3
2016-Aug-12 21:27N 01°45' E 102°32'1413.5
2016-Aug-12 20:23N 01°51' E 102°19'  
Track history (hours):
 
Tides and Currents Weather Stations Pressure Air Temp Water Temp Dewpoint Dewpoint Depression Visibility Wind Speed Wind Dir Waves Ship Positions

Star Markella

Last reported at 2016-Aug-13 23:32 UTC. Time now 2016-Aug-26 23:25 UTC.
Position N 01°15' E 104°07'.
Warning: this ship's position is 12 days out of date.

Length 229 m; draft 13.2 m.

Type: Cargo ship. MMSI: 538002640.

Date/timePositionNaut miles runAvg speedWind from/ knotsBaromVisibWave heightAir tempDewpointWater temp
2016-Aug-13 23:32N 01°15' E 104°07'9 9.3
2016-Aug-13 22:33N 01°15' E 103°57'3 2.3
2016-Aug-13 21:27N 01°17' E 103°56'0 0.1
2016-Aug-13 20:33N 01°17' E 103°56'0 0.0
2016-Aug-13 19:15N 01°17' E 103°56'0 0.0
2016-Aug-13 18:27N 01°17' E 103°56'0 0.0
2016-Aug-13 17:33N 01°17' E 103°56'0 0.0
2016-Aug-13 16:33N 01°17' E 103°56'0 0.0
2016-Aug-13 15:33N 01°17' E 103°56'0 0.0
2016-Aug-13 14:27N 01°17' E 103°56'0 0.1
2016-Aug-13 13:33N 01°17' E 103°56'0 0.1
2016-Aug-13 12:33N 01°17' E 103°56'0 0.1
2016-Aug-13 11:33N 01°17' E 103°56'0 0.1
2016-Aug-13 10:34N 01°17' E 103°56'0 0.2
2016-Aug-13 09:33N 01°17' E 103°56'0 0.1
2016-Aug-13 08:33N 01°17' E 103°56'2 2.5
2016-Aug-13 07:34N 01°15' E 103°57'5 5.5
2016-Aug-13 06:34N 01°12' E 103°52'7 7.0
2016-Aug-13 05:33N 01°08' E 103°46'8310.3
2016-Aug-12 21:27N 01°45' E 102°32'1413.5
2016-Aug-12 20:23N 01°51' E 102°19'  

Dump ship's entire track history